createdAt,value
2022-08-26T00:00:07.013Z,6.32
2022-08-26T00:01:09.611Z,6.63
2022-08-26T00:02:12.702Z,6.78
2022-08-26T00:03:16.322Z,6.07
2022-08-26T00:04:18.473Z,6.57
2022-08-26T00:05:21.612Z,6.72
2022-08-26T00:06:25.824Z,5.78
2022-08-26T00:07:28.457Z,6.43
2022-08-26T00:08:31.151Z,6.97
2022-08-26T00:09:39.067Z,6.30
2022-08-26T00:10:44.973Z,6.50
2022-08-26T00:11:47.252Z,7.38
2022-08-26T00:12:50.025Z,5.97
2022-08-26T00:13:51.615Z,6.28
2022-08-26T00:14:55.895Z,6.32
2022-08-26T00:15:57.773Z,6.57
2022-08-26T00:17:00.425Z,6.35
2022-08-26T00:18:02.102Z,6.55
2022-08-26T00:19:04.734Z,6.78
2022-08-26T00:20:09.997Z,6.65
2022-08-26T00:21:12.864Z,6.68
2022-08-26T00:22:20.242Z,6.00
2022-08-26T00:23:24.497Z,6.18
2022-08-26T00:24:26.183Z,6.13
2022-08-26T00:25:29.964Z,6.88
2022-08-26T00:26:34.749Z,6.10
2022-08-26T00:27:37.529Z,6.40
2022-08-26T00:28:40.882Z,6.88
2022-08-26T00:29:43.458Z,7.53
2022-08-26T00:30:48.033Z,7.82
2022-08-26T00:31:54.236Z,6.18
2022-08-26T00:32:56.394Z,6.72
2022-08-26T00:33:59.561Z,7.03
2022-08-26T00:35:01.349Z,6.85
2022-08-26T00:36:05.157Z,6.93
2022-08-26T00:37:08.949Z,6.25
2022-08-26T00:38:12.904Z,6.85
2022-08-26T00:39:14.782Z,7.38
2022-08-26T00:40:21.410Z,7.15
2022-08-26T00:41:23.045Z,7.13
2022-08-26T00:42:27.645Z,6.93
2022-08-26T00:43:32.767Z,6.82
2022-08-26T00:44:48.990Z,6.82
2022-08-26T00:45:55.432Z,7.13
2022-08-26T00:47:01.624Z,7.25
2022-08-26T00:48:05.911Z,6.63
2022-08-26T00:49:14.917Z,6.65
2022-08-26T00:50:24.296Z,7.18
2022-08-26T00:51:29.674Z,6.38
2022-08-26T00:52:31.916Z,6.57
2022-08-26T00:53:38.187Z,6.28
2022-08-26T00:54:46.897Z,6.40
2022-08-26T00:55:54.540Z,6.85
2022-08-26T00:56:59.945Z,6.38
2022-08-26T00:58:04.704Z,6.90
2022-08-26T00:59:08.930Z,7.13
2022-08-26T01:00:15.533Z,8.00
2022-08-26T01:01:17.876Z,7.28
2022-08-26T01:02:21.087Z,6.97
2022-08-26T01:03:25.453Z,6.82
2022-08-26T01:04:29.716Z,6.22
2022-08-26T01:05:32.504Z,7.05
2022-08-26T01:06:35.096Z,7.40
2022-08-26T01:07:37.103Z,6.88
2022-08-26T01:08:39.681Z,7.47
2022-08-26T01:09:41.335Z,7.68
2022-08-26T01:10:45.233Z,7.65
2022-08-26T01:11:47.769Z,6.90
2022-08-26T01:12:54.349Z,7.13
2022-08-26T01:14:01.341Z,7.07
2022-08-26T01:15:06.478Z,7.45
2022-08-26T01:16:13.183Z,7.63
2022-08-26T01:17:15.181Z,6.68
2022-08-26T01:18:18.601Z,7.30
2022-08-26T01:19:23.689Z,7.35
2022-08-26T01:20:31.313Z,7.88
2022-08-26T01:21:40.651Z,7.75
2022-08-26T01:22:52.370Z,7.28
2022-08-26T01:23:57.433Z,7.10
2022-08-26T01:25:01.355Z,7.05
2022-08-26T01:26:08.696Z,8.18
2022-08-26T01:27:22.980Z,8.52
2022-08-26T01:28:29.190Z,8.20
2022-08-26T01:29:33.826Z,7.80
2022-08-26T01:30:37.851Z,7.32
2022-08-26T01:31:43.655Z,7.80
2022-08-26T01:32:45.914Z,8.27
2022-08-26T01:33:52.084Z,8.95
2022-08-26T01:34:54.150Z,7.68
2022-08-26T01:35:56.963Z,8.18
2022-08-26T01:37:04.469Z,8.00
2022-08-26T01:38:09.846Z,8.50
2022-08-26T01:39:12.015Z,8.13
2022-08-26T01:40:19.766Z,8.60
2022-08-26T01:41:27.100Z,7.95
2022-08-26T01:42:30.691Z,7.72
2022-08-26T01:43:33.301Z,8.38
2022-08-26T01:44:37.863Z,8.93
2022-08-26T01:45:41.469Z,8.82
2022-08-26T01:46:46.163Z,8.65
2022-08-26T01:47:49.029Z,8.82
2022-08-26T01:48:54.521Z,9.73
2022-08-26T01:49:57.440Z,9.38
2022-08-26T01:51:01.146Z,8.60
2022-08-26T01:52:05.217Z,9.90
2022-08-26T01:53:12.868Z,9.35
2022-08-26T01:54:15.000Z,8.73
2022-08-26T01:55:27.653Z,9.25
2022-08-26T01:56:36.580Z,9.10
2022-08-26T01:57:38.510Z,9.32
2022-08-26T01:58:44.445Z,9.45
2022-08-26T01:59:46.804Z,9.23
2022-08-26T02:00:49.639Z,9.55
2022-08-26T02:01:52.737Z,10.20
2022-08-26T02:03:16.574Z,10.10
2022-08-26T02:04:22.607Z,9.13
2022-08-26T02:05:25.438Z,10.27
2022-08-26T02:06:27.520Z,9.27
2022-08-26T02:07:30.620Z,9.65
2022-08-26T02:08:40.045Z,9.57
2022-08-26T02:09:43.523Z,10.57
2022-08-26T02:10:45.359Z,9.50
2022-08-26T02:11:48.626Z,8.80
2022-08-26T02:12:52.778Z,9.32
2022-08-26T02:13:57.604Z,10.05
2022-08-26T02:15:02.423Z,9.27
2022-08-26T02:16:09.192Z,9.45
2022-08-26T02:17:11.600Z,9.20
2022-08-26T02:18:14.531Z,9.88
2022-08-26T02:19:19.475Z,9.35
2022-08-26T02:20:23.093Z,10.93
2022-08-26T02:21:26.145Z,9.32
2022-08-26T02:22:28.661Z,8.65
2022-08-26T02:23:31.304Z,9.45
2022-08-26T02:24:49.333Z,9.45
2022-08-26T02:25:55.381Z,8.80
2022-08-26T02:26:58.054Z,10.27
2022-08-26T02:28:01.452Z,10.38
2022-08-26T02:29:07.955Z,9.48
2022-08-26T02:30:13.799Z,9.13
2022-08-26T02:31:16.522Z,9.07
2022-08-26T02:32:18.523Z,9.55
2022-08-26T02:33:21.357Z,9.82
2022-08-26T02:34:28.200Z,9.00
2022-08-26T02:35:34.822Z,9.45
2022-08-26T02:36:36.489Z,9.30
2022-08-26T02:37:39.636Z,9.02
2022-08-26T02:38:43.507Z,9.20
2022-08-26T02:39:50.223Z,9.73
2022-08-26T02:40:51.857Z,8.88
2022-08-26T02:41:54.580Z,9.27
2022-08-26T02:42:57.071Z,8.95
2022-08-26T02:44:00.013Z,8.60
2022-08-26T02:45:01.713Z,9.82
2022-08-26T02:46:05.831Z,9.38
2022-08-26T02:47:07.995Z,10.07
2022-08-26T02:48:13.303Z,9.55
2022-08-26T02:49:15.212Z,9.10
2022-08-26T02:50:19.853Z,8.93
2022-08-26T02:51:21.541Z,10.18
2022-08-26T02:52:25.337Z,9.55
2022-08-26T02:53:26.993Z,9.80
2022-08-26T02:54:30.447Z,8.85
2022-08-26T02:55:33.821Z,9.27
2022-08-26T02:56:36.460Z,9.80
2022-08-26T02:57:38.072Z,8.68
2022-08-26T02:58:40.674Z,10.05
2022-08-26T02:59:43.031Z,8.88
2022-08-26T03:00:53.129Z,10.82
2022-08-26T03:01:56.131Z,9.30
2022-08-26T03:02:59.371Z,9.25
2022-08-26T03:04:02.465Z,8.50
2022-08-26T03:05:06.011Z,9.07
2022-08-26T03:06:07.813Z,9.57
2022-08-26T03:07:11.603Z,9.55
2022-08-26T03:08:13.596Z,9.43
2022-08-26T03:09:18.485Z,8.80
2022-08-26T03:10:22.008Z,8.77
2022-08-26T03:11:29.736Z,9.13
2022-08-26T03:12:34.759Z,9.88
2022-08-26T03:13:37.449Z,9.73
2022-08-26T03:14:39.060Z,8.95
2022-08-26T03:15:42.449Z,9.50
2022-08-26T03:16:44.612Z,9.55
2022-08-26T03:17:51.196Z,9.27
2022-08-26T03:18:52.881Z,9.10
2022-08-26T03:19:57.234Z,9.65
2022-08-26T03:20:59.246Z,9.95
2022-08-26T03:22:02.252Z,9.10
2022-08-26T03:23:05.142Z,9.20
2022-08-26T03:24:09.845Z,10.45
2022-08-26T03:25:15.055Z,9.35
2022-08-26T03:26:16.686Z,10.30
2022-08-26T03:27:20.890Z,10.35
2022-08-26T03:28:22.474Z,10.27
2022-08-26T03:29:42.798Z,10.18
2022-08-26T03:30:45.801Z,10.82
2022-08-26T03:31:48.533Z,9.77
2022-08-26T03:32:50.904Z,11.10
2022-08-26T03:33:58.747Z,10.88
2022-08-26T03:35:02.003Z,10.02
2022-08-26T03:36:07.662Z,11.95
2022-08-26T03:37:10.346Z,12.82
2022-08-26T03:38:12.936Z,10.35
2022-08-26T03:39:15.523Z,10.98
2022-08-26T03:40:20.345Z,10.65
2022-08-26T03:41:23.394Z,10.98
2022-08-26T03:42:26.565Z,10.70
2022-08-26T03:43:29.140Z,11.63
2022-08-26T03:44:31.459Z,11.45
2022-08-26T03:45:35.565Z,11.75
2022-08-26T03:46:38.602Z,10.93
2022-08-26T03:47:42.853Z,11.02
2022-08-26T03:48:44.852Z,11.85
2022-08-26T03:49:47.482Z,11.10
2022-08-26T03:50:50.573Z,10.98
2022-08-26T03:51:53.152Z,10.20
2022-08-26T03:52:56.739Z,11.30
2022-08-26T03:54:00.529Z,10.43
2022-08-26T03:55:03.172Z,10.60
2022-08-26T03:56:06.009Z,11.85
2022-08-26T03:57:09.051Z,10.73
2022-08-26T03:58:12.301Z,11.40
2022-08-26T03:59:14.897Z,11.77
2022-08-26T04:00:18.422Z,11.52
2022-08-26T04:01:21.751Z,12.00
2022-08-26T04:02:23.494Z,11.38
2022-08-26T04:03:40.215Z,12.10
2022-08-26T04:04:42.827Z,12.23
2022-08-26T04:05:44.517Z,11.43
2022-08-26T04:06:47.546Z,12.00
2022-08-26T04:07:49.174Z,13.25
2022-08-26T04:08:53.115Z,13.35
2022-08-26T04:09:55.283Z,13.18
2022-08-26T04:10:58.058Z,12.55
2022-08-26T04:12:00.761Z,13.80
2022-08-26T04:13:02.378Z,13.98
2022-08-26T04:14:08.707Z,13.88
2022-08-26T04:15:13.458Z,12.85
2022-08-26T04:16:17.872Z,13.85
2022-08-26T04:17:19.682Z,13.73
2022-08-26T04:18:33.192Z,13.43
2022-08-26T04:19:38.948Z,13.40
2022-08-26T04:20:41.562Z,14.32
2022-08-26T04:21:43.542Z,13.60
2022-08-26T04:22:46.280Z,14.50
2022-08-26T04:23:48.141Z,14.32
2022-08-26T04:24:50.756Z,15.55
2022-08-26T04:25:52.357Z,14.73
2022-08-26T04:26:56.325Z,15.43
2022-08-26T04:27:58.940Z,16.23
2022-08-26T04:29:01.193Z,16.77
2022-08-26T04:30:06.554Z,18.08
2022-08-26T04:31:12.364Z,16.75
2022-08-26T04:32:15.414Z,17.23
2022-08-26T04:33:18.108Z,16.35
2022-08-26T04:34:35.508Z,17.55
2022-08-26T04:35:37.396Z,17.48
2022-08-26T04:36:40.944Z,18.42
2022-08-26T04:37:43.949Z,19.30
2022-08-26T04:38:46.717Z,15.50
2022-08-26T04:39:51.221Z,21.38
2022-08-26T04:40:53.974Z,19.30
2022-08-26T04:41:55.836Z,20.92
2022-08-26T04:43:00.541Z,22.02
2022-08-26T04:44:02.426Z,20.45
2022-08-26T04:45:09.906Z,23.15
2022-08-26T04:46:13.554Z,23.45
2022-08-26T04:47:16.268Z,23.40
2022-08-26T04:48:17.874Z,23.77
2022-08-26T04:49:21.284Z,24.20
2022-08-26T04:50:23.610Z,23.15
2022-08-26T04:51:28.358Z,24.05
2022-08-26T04:52:29.980Z,23.20
2022-08-26T04:53:33.608Z,24.88
2022-08-26T04:54:35.366Z,24.73
2022-08-26T04:55:42.686Z,26.40
2022-08-26T04:56:49.446Z,26.10
2022-08-26T04:57:51.528Z,27.52
2022-08-26T04:58:54.614Z,23.20
2022-08-26T04:59:56.229Z,25.95
2022-08-26T05:01:00.215Z,25.77
2022-08-26T05:02:03.629Z,26.45
2022-08-26T05:03:10.591Z,25.25
2022-08-26T05:04:12.537Z,25.35
2022-08-26T05:05:19.013Z,24.25
2022-08-26T05:06:22.375Z,24.55
2022-08-26T05:07:25.006Z,26.63
2022-08-26T05:08:26.731Z,25.75
2022-08-26T05:09:30.485Z,26.75
2022-08-26T05:10:34.907Z,28.02
2022-08-26T05:11:38.367Z,27.70
2022-08-26T05:12:39.939Z,27.27
2022-08-26T05:13:43.299Z,28.20
2022-08-26T05:14:45.141Z,28.13
2022-08-26T05:15:50.011Z,27.38
2022-08-26T05:16:53.889Z,26.35
2022-08-26T05:17:58.961Z,28.05
2022-08-26T05:19:03.521Z,28.10
2022-08-26T05:20:07.068Z,28.88
2022-08-26T05:21:09.043Z,29.77
2022-08-26T05:22:13.067Z,28.25
2022-08-26T05:23:15.439Z,29.23
2022-08-26T05:24:18.302Z,29.88
2022-08-26T05:25:19.946Z,28.80
2022-08-26T05:26:24.005Z,27.73
2022-08-26T05:27:27.365Z,27.40
2022-08-26T05:28:30.552Z,30.00
2022-08-26T05:29:32.188Z,28.55
2022-08-26T05:30:34.769Z,29.13
2022-08-26T05:31:36.448Z,28.77
2022-08-26T05:32:40.462Z,28.15
2022-08-26T05:33:42.732Z,26.30
2022-08-26T05:34:45.283Z,27.00
2022-08-26T05:35:47.741Z,25.45
2022-08-26T05:36:51.127Z,17.98
2022-08-26T05:37:52.728Z,20.98
2022-08-26T05:38:56.619Z,23.67
2022-08-26T05:39:58.251Z,17.77
2022-08-26T05:41:01.365Z,26.58
2022-08-26T05:42:04.021Z,24.13
2022-08-26T05:43:10.494Z,27.52
2022-08-26T05:44:18.740Z,28.80
2022-08-26T05:45:20.433Z,26.17
2022-08-26T05:46:23.078Z,28.42
2022-08-26T05:47:26.166Z,25.80
2022-08-26T05:48:29.408Z,26.02
2022-08-26T05:49:32.032Z,31.60
2022-08-26T05:50:38.277Z,31.25
2022-08-26T05:51:40.368Z,14.23
2022-08-26T05:52:42.974Z,33.40
2022-08-26T05:53:54.765Z,33.55
2022-08-26T05:54:57.941Z,28.50
2022-08-26T05:55:59.571Z,34.10
2022-08-26T05:57:02.744Z,21.73
2022-08-26T05:58:05.250Z,26.75
2022-08-26T05:59:14.642Z,31.48
2022-08-26T06:00:16.543Z,36.92
2022-08-26T06:01:22.064Z,32.88
2022-08-26T06:02:25.958Z,36.47
2022-08-26T06:03:31.524Z,19.02
2022-08-26T06:04:34.493Z,35.92
2022-08-26T06:05:39.273Z,22.65
2022-08-26T06:06:42.994Z,36.80
2022-08-26T06:08:04.089Z,30.40
2022-08-26T06:09:10.918Z,28.13
2022-08-26T06:10:31.693Z,30.83
2022-08-26T06:11:35.417Z,17.25
2022-08-26T06:12:37.542Z,34.03
2022-08-26T06:13:40.577Z,37.03
2022-08-26T06:14:43.165Z,37.90
2022-08-26T06:15:48.746Z,39.08
2022-08-26T06:16:51.418Z,24.20
2022-08-26T06:17:53.017Z,33.70
2022-08-26T06:18:57.588Z,31.45
2022-08-26T06:20:00.464Z,24.75
2022-08-26T06:21:13.435Z,35.53
2022-08-26T06:22:35.243Z,38.75
2022-08-26T06:23:52.772Z,34.92
2022-08-26T06:25:12.727Z,33.53
2022-08-26T06:26:16.218Z,24.70
2022-08-26T06:27:18.859Z,37.58
2022-08-26T06:28:21.477Z,36.67
2022-08-26T06:29:26.651Z,37.17
2022-08-26T06:30:28.290Z,38.45
2022-08-26T06:31:31.154Z,35.78
2022-08-26T06:32:35.695Z,20.73
2022-08-26T06:33:37.349Z,34.20
2022-08-26T06:34:41.310Z,35.97
2022-08-26T06:35:43.678Z,35.45
2022-08-26T06:36:47.266Z,34.28
2022-08-26T06:37:49.033Z,26.25
2022-08-26T06:38:53.505Z,36.08
2022-08-26T06:39:55.138Z,34.92
2022-08-26T06:40:59.763Z,35.97
2022-08-26T06:42:03.086Z,33.92
2022-08-26T06:43:05.939Z,26.48
2022-08-26T06:44:07.857Z,33.13
2022-08-26T06:45:11.373Z,25.98
2022-08-26T06:46:17.111Z,30.58
2022-08-26T06:47:18.754Z,34.58
2022-08-26T06:48:21.654Z,34.53
2022-08-26T06:49:27.251Z,27.95
2022-08-26T06:50:31.609Z,34.88
2022-08-26T06:51:35.031Z,34.40
2022-08-26T06:52:37.750Z,33.63
2022-08-26T06:53:41.962Z,32.10
2022-08-26T06:54:44.684Z,26.17
2022-08-26T06:55:46.817Z,34.55
2022-08-26T06:56:56.733Z,24.85
2022-08-26T06:57:58.364Z,28.70
2022-08-26T06:59:01.368Z,22.63
2022-08-26T07:00:04.656Z,23.75
2022-08-26T07:01:15.937Z,20.52
2022-08-26T07:02:20.841Z,31.23
2022-08-26T07:03:23.429Z,31.30
2022-08-26T07:04:25.067Z,30.83
2022-08-26T07:05:32.245Z,34.15
2022-08-26T07:06:37.072Z,30.88
2022-08-26T07:07:41.644Z,29.50
2022-08-26T07:08:44.510Z,31.92
2022-08-26T07:09:47.109Z,29.08
2022-08-26T07:10:52.109Z,30.85
2022-08-26T07:11:58.421Z,31.73
2022-08-26T07:13:00.677Z,29.25
2022-08-26T07:14:03.284Z,31.25
2022-08-26T07:15:05.767Z,31.75
2022-08-26T07:16:12.789Z,32.38
2022-08-26T07:17:16.272Z,33.40
2022-08-26T07:18:18.065Z,32.42
2022-08-26T07:19:27.618Z,31.42
2022-08-26T07:20:39.129Z,32.97
2022-08-26T07:21:44.498Z,33.30
2022-08-26T07:22:47.184Z,33.17
2022-08-26T07:23:49.522Z,32.45
2022-08-26T07:24:52.425Z,31.05
2022-08-26T07:25:54.017Z,31.60
2022-08-26T07:27:00.956Z,21.77
2022-08-26T07:28:03.123Z,29.58
2022-08-26T07:29:06.777Z,31.77
2022-08-26T07:30:14.763Z,31.45
2022-08-26T07:31:17.503Z,30.38
2022-08-26T07:32:22.974Z,30.55
2022-08-26T07:33:25.684Z,31.17
2022-08-26T07:34:27.390Z,25.25
2022-08-26T07:35:29.994Z,26.83
2022-08-26T07:36:32.934Z,31.55
2022-08-26T07:37:39.115Z,28.23
2022-08-26T07:38:41.766Z,31.08
2022-08-26T07:39:45.109Z,32.03
2022-08-26T07:40:47.908Z,29.17
2022-08-26T07:41:50.501Z,31.40
2022-08-26T07:42:54.135Z,26.70
2022-08-26T07:43:56.618Z,31.50
2022-08-26T07:44:59.717Z,31.70
2022-08-26T07:46:02.270Z,33.13
2022-08-26T07:47:10.547Z,32.42
2022-08-26T07:48:27.249Z,31.60
2022-08-26T07:49:29.966Z,29.63
2022-08-26T07:50:49.011Z,30.60
2022-08-26T07:51:55.308Z,30.45
2022-08-26T07:52:57.271Z,30.30
2022-08-26T07:53:59.881Z,30.48
2022-08-26T07:55:04.316Z,22.20
2022-08-26T07:56:06.328Z,22.77
2022-08-26T07:57:09.392Z,28.83
2022-08-26T07:58:12.664Z,30.90
2022-08-26T07:59:15.573Z,18.17
2022-08-26T08:00:18.670Z,29.98
2022-08-26T08:01:21.613Z,28.35
2022-08-26T08:02:25.394Z,29.80
2022-08-26T08:03:26.983Z,29.65
2022-08-26T08:04:29.599Z,29.50
2022-08-26T08:05:33.593Z,29.20
2022-08-26T08:06:36.692Z,29.55
2022-08-26T08:07:45.309Z,26.55
2022-08-26T08:08:50.802Z,27.42
2022-08-26T08:09:53.225Z,21.77
2022-08-26T08:10:56.251Z,27.73
2022-08-26T08:11:58.834Z,26.13
2022-08-26T08:13:04.227Z,26.83
2022-08-26T08:14:08.446Z,20.98
2022-08-26T08:15:13.281Z,20.48
2022-08-26T08:16:14.879Z,26.30
2022-08-26T08:17:17.505Z,27.67
2022-08-26T08:18:20.916Z,23.70
2022-08-26T08:19:24.342Z,26.08
2022-08-26T08:20:40.570Z,23.75
2022-08-26T08:21:47.999Z,28.45
2022-08-26T08:22:52.066Z,25.92
2022-08-26T08:23:57.755Z,26.92
2022-08-26T08:24:59.346Z,28.38
2022-08-26T08:26:02.580Z,28.15
2022-08-26T08:27:04.476Z,27.75
2022-08-26T08:28:07.041Z,29.63
2022-08-26T08:29:09.603Z,27.33
2022-08-26T08:30:13.835Z,22.33
2022-08-26T08:31:38.556Z,26.65
2022-08-26T08:32:44.286Z,19.75
2022-08-26T08:33:46.730Z,27.20
2022-08-26T08:34:49.560Z,27.50
2022-08-26T08:35:51.237Z,26.73
2022-08-26T08:36:54.912Z,24.10
2022-08-26T08:37:57.857Z,18.10
2022-08-26T08:39:00.479Z,24.50
2022-08-26T08:40:02.368Z,22.27
2022-08-26T08:41:05.640Z,26.15
2022-08-26T08:42:31.059Z,26.08
2022-08-26T08:43:40.426Z,22.20
2022-08-26T08:44:44.527Z,26.40
2022-08-26T08:45:55.956Z,26.13
2022-08-26T08:47:01.075Z,26.23
2022-08-26T08:48:06.938Z,24.35
2022-08-26T08:49:09.450Z,26.95
2022-08-26T08:50:21.493Z,22.05
2022-08-26T08:51:32.802Z,26.20
2022-08-26T08:52:35.711Z,21.67
2022-08-26T08:53:43.158Z,18.88
2022-08-26T08:54:45.904Z,26.73
2022-08-26T08:56:01.934Z,24.35
2022-08-26T08:57:09.682Z,24.63
2022-08-26T08:58:16.617Z,23.45
2022-08-26T08:59:24.060Z,23.65
2022-08-26T09:00:30.632Z,27.42
2022-08-26T09:01:42.221Z,27.85
2022-08-26T09:02:50.615Z,18.05
2022-08-26T09:04:01.737Z,17.90
2022-08-26T09:05:08.317Z,22.63
2022-08-26T09:06:17.400Z,22.75
2022-08-26T09:07:21.118Z,20.77
2022-08-26T09:08:28.261Z,21.42
2022-08-26T09:09:35.376Z,24.65
2022-08-26T09:10:39.973Z,24.88
2022-08-26T09:11:43.264Z,27.38
2022-08-26T09:12:46.922Z,23.20
2022-08-26T09:13:50.822Z,21.17
2022-08-26T09:15:03.064Z,24.15
2022-08-26T09:16:08.259Z,23.38
2022-08-26T09:17:21.168Z,24.52
2022-08-26T09:18:33.336Z,24.52
2022-08-26T09:19:41.545Z,24.98
2022-08-26T09:20:47.501Z,24.83
2022-08-26T09:21:56.843Z,26.30
2022-08-26T09:22:58.568Z,25.75
2022-08-26T09:24:01.720Z,23.42
2022-08-26T09:25:11.117Z,25.70
2022-08-26T09:26:17.783Z,23.98
2022-08-26T09:27:39.947Z,22.45
2022-08-26T09:28:43.068Z,21.83
2022-08-26T09:29:46.272Z,23.02
2022-08-26T09:31:02.688Z,24.50
2022-08-26T09:32:19.364Z,25.02
2022-08-26T09:33:29.250Z,25.75
2022-08-26T09:34:33.262Z,24.10
2022-08-26T09:35:39.161Z,24.50
2022-08-26T09:36:43.944Z,24.95
2022-08-26T09:38:56.734Z,23.98
2022-08-26T09:40:14.443Z,26.02
2022-08-26T09:41:26.534Z,25.13
2022-08-26T09:42:28.334Z,22.15
2022-08-26T09:43:31.169Z,23.98
2022-08-26T09:44:33.232Z,24.17
2022-08-26T09:45:37.361Z,24.20
2022-08-26T09:46:42.570Z,24.85
2022-08-26T09:47:54.437Z,25.17
2022-08-26T09:48:56.237Z,24.58
2022-08-26T09:50:02.033Z,24.10
2022-08-26T09:51:05.553Z,21.67
2022-08-26T09:52:15.746Z,25.08
2022-08-26T09:53:21.197Z,25.35
2022-08-26T09:54:32.344Z,24.23
2022-08-26T09:55:38.125Z,24.02
2022-08-26T09:56:39.782Z,23.85
2022-08-26T09:57:48.184Z,24.88
2022-08-26T09:58:51.428Z,23.95
2022-08-26T09:59:53.790Z,25.45
2022-08-26T10:01:01.217Z,24.88
2022-08-26T10:02:17.771Z,24.63
2022-08-26T10:03:25.940Z,24.45
2022-08-26T10:04:29.870Z,22.27
2022-08-26T10:05:38.304Z,24.33
2022-08-26T10:06:43.207Z,24.48
2022-08-26T10:07:48.733Z,24.70
2022-08-26T10:08:54.251Z,25.25
2022-08-26T10:09:55.943Z,24.08
2022-08-26T10:11:01.639Z,22.15
2022-08-26T10:12:07.003Z,23.27
2022-08-26T10:13:13.835Z,23.88
2022-08-26T10:14:18.863Z,24.08
2022-08-26T10:15:24.788Z,25.48
2022-08-26T10:16:29.201Z,25.33
2022-08-26T10:17:34.957Z,25.63
2022-08-26T10:18:41.534Z,23.67
2022-08-26T10:19:56.700Z,23.08
2022-08-26T10:21:04.841Z,24.15
2022-08-26T10:22:14.237Z,24.45
2022-08-26T10:23:18.949Z,23.88
2022-08-26T10:24:24.973Z,24.35
2022-08-26T10:25:29.541Z,24.90
2022-08-26T10:26:41.182Z,24.05
2022-08-26T10:27:51.003Z,23.15
2022-08-26T10:28:57.011Z,23.35
2022-08-26T10:30:05.530Z,23.45
2022-08-26T10:31:27.520Z,23.27
2022-08-26T10:32:35.078Z,20.23
2022-08-26T10:33:40.269Z,22.40
2022-08-26T10:34:42.326Z,22.05
2022-08-26T10:35:51.347Z,17.80
2022-08-26T10:37:16.002Z,22.13
2022-08-26T10:38:21.425Z,21.80
2022-08-26T10:39:27.503Z,22.77
2022-08-26T10:40:32.051Z,21.90
2022-08-26T10:41:39.421Z,22.73
2022-08-26T10:42:45.789Z,21.23
2022-08-26T10:43:51.721Z,21.88
2022-08-26T10:44:58.482Z,21.92
2022-08-26T10:46:05.131Z,21.45
2022-08-26T10:47:17.581Z,21.40
2022-08-26T10:48:26.261Z,21.50
2022-08-26T10:49:39.635Z,22.27
2022-08-26T10:50:43.403Z,22.58
2022-08-26T10:51:53.321Z,23.00
2022-08-26T10:52:58.885Z,21.20
2022-08-26T10:54:05.707Z,20.75
2022-08-26T10:55:16.015Z,21.08
2022-08-26T10:56:26.717Z,20.30
2022-08-26T10:57:39.999Z,19.10
2022-08-26T10:58:52.298Z,20.98
2022-08-26T11:00:00.114Z,22.95
2022-08-26T11:01:26.330Z,20.48
2022-08-26T11:02:33.681Z,21.63
2022-08-26T11:03:38.940Z,22.23
2022-08-26T11:04:48.535Z,21.00
2022-08-26T11:06:20.052Z,21.23
2022-08-26T11:07:43.339Z,22.75
2022-08-26T11:08:49.689Z,21.20
2022-08-26T11:09:52.826Z,22.00
2022-08-26T11:10:59.099Z,22.20
2022-08-26T11:12:09.935Z,22.50
2022-08-26T11:13:14.392Z,20.73
2022-08-26T11:14:42.010Z,21.55
2022-08-26T11:15:59.419Z,19.73
2022-08-26T11:17:04.078Z,21.15
2022-08-26T11:18:10.939Z,20.98
2022-08-26T11:20:01.497Z,21.35
2022-08-26T11:21:49.376Z,19.45
2022-08-26T11:22:53.650Z,20.52
2022-08-26T11:23:55.281Z,20.20
2022-08-26T11:25:05.322Z,20.38
2022-08-26T11:26:13.572Z,20.27
2022-08-26T11:28:02.166Z,20.42
2022-08-26T11:29:13.136Z,20.17
2022-08-26T11:30:43.960Z,21.77
2022-08-26T11:31:54.832Z,19.85
2022-08-26T11:32:59.246Z,22.13
2022-08-26T11:34:03.108Z,21.40
2022-08-26T11:35:06.999Z,17.50
2022-08-26T11:36:12.607Z,20.75
2022-08-26T11:37:17.915Z,20.15
2022-08-26T11:38:25.992Z,20.10
2022-08-26T11:39:36.522Z,20.55
2022-08-26T11:40:40.476Z,18.90
2022-08-26T11:41:44.844Z,20.00
2022-08-26T11:42:50.509Z,19.70
2022-08-26T11:43:52.867Z,16.90
2022-08-26T11:44:58.101Z,17.73
2022-08-26T11:46:02.815Z,18.35
2022-08-26T11:47:07.915Z,15.52
2022-08-26T11:48:17.826Z,17.70
2022-08-26T11:49:19.588Z,16.77
2022-08-26T11:50:25.951Z,17.35
2022-08-26T11:51:31.479Z,17.83
2022-08-26T11:52:34.548Z,18.42
2022-08-26T11:53:38.233Z,18.60
2022-08-26T11:54:41.337Z,15.35
2022-08-26T11:55:44.823Z,17.75
2022-08-26T11:56:51.396Z,17.90
2022-08-26T11:57:57.595Z,18.08
2022-08-26T11:59:02.365Z,17.27
2022-08-26T12:00:12.030Z,17.75
2022-08-26T12:01:27.057Z,19.33
2022-08-26T12:02:33.475Z,17.27
2022-08-26T12:03:41.397Z,16.25
2022-08-26T12:04:47.223Z,16.55
2022-08-26T12:05:51.977Z,16.20
2022-08-26T12:06:55.652Z,15.63
2022-08-26T12:08:00.720Z,16.85
2022-08-26T12:09:06.773Z,16.15
2022-08-26T12:10:29.386Z,16.40
2022-08-26T12:11:35.081Z,15.80
2022-08-26T12:12:38.671Z,15.15
2022-08-26T12:13:42.233Z,14.52
2022-08-26T12:14:46.112Z,15.73
2022-08-26T12:15:53.298Z,15.20
2022-08-26T12:17:09.990Z,13.93
2022-08-26T12:18:29.043Z,14.25
2022-08-26T12:19:34.041Z,14.23
2022-08-26T12:20:55.921Z,13.98
2022-08-26T12:22:03.685Z,13.60
2022-08-26T12:23:05.979Z,14.00
2022-08-26T12:24:09.500Z,15.27
2022-08-26T12:25:12.476Z,14.90
2022-08-26T12:26:22.445Z,13.75
2022-08-26T12:27:28.282Z,14.05
2022-08-26T12:28:30.932Z,13.55
2022-08-26T12:29:33.515Z,14.10
2022-08-26T12:30:35.912Z,14.07
2022-08-26T12:31:41.819Z,14.00
2022-08-26T12:32:57.504Z,13.88
2022-08-26T12:34:02.905Z,14.30
2022-08-26T12:36:14.815Z,14.15
2022-08-26T12:37:18.989Z,13.93
2022-08-26T12:38:21.710Z,12.50
2022-08-26T12:39:29.605Z,14.07
2022-08-26T12:40:37.104Z,13.82
2022-08-26T12:41:43.280Z,14.30
2022-08-26T12:42:46.710Z,13.25
2022-08-26T12:43:48.857Z,13.27
2022-08-26T12:44:59.468Z,13.40
2022-08-26T12:46:01.218Z,13.23
2022-08-26T12:47:06.766Z,12.73
2022-08-26T12:48:11.683Z,12.35
2022-08-26T12:49:17.708Z,12.65
2022-08-26T12:50:22.488Z,12.88
2022-08-26T12:51:28.388Z,12.80
2022-08-26T12:52:34.250Z,13.30
2022-08-26T12:53:42.136Z,13.07
2022-08-26T12:55:02.741Z,11.98
2022-08-26T12:56:18.166Z,11.52
2022-08-26T12:57:30.578Z,12.18
2022-08-26T12:58:34.858Z,11.48
2022-08-26T12:59:36.479Z,11.70
2022-08-26T13:00:41.127Z,11.82
2022-08-26T13:01:45.585Z,12.20
2022-08-26T13:02:47.365Z,10.85
2022-08-26T13:03:51.858Z,11.27
2022-08-26T13:05:00.705Z,11.38
2022-08-26T13:06:27.210Z,11.95
2022-08-26T13:07:29.944Z,10.65
2022-08-26T13:08:33.560Z,11.02
2022-08-26T13:09:37.389Z,11.32
2022-08-26T13:10:41.901Z,10.57
2022-08-26T13:11:58.707Z,12.18
2022-08-26T13:13:00.290Z,11.45
2022-08-26T13:14:06.871Z,10.48
2022-08-26T13:15:09.384Z,10.68
2022-08-26T13:16:13.336Z,10.85
2022-08-26T13:17:15.011Z,11.52
2022-08-26T13:18:17.624Z,9.77
2022-08-26T13:19:20.965Z,10.63
2022-08-26T13:20:23.642Z,10.20
2022-08-26T13:21:28.782Z,10.13
2022-08-26T13:22:33.649Z,9.88
2022-08-26T13:23:42.319Z,9.15
2022-08-26T13:24:44.470Z,9.30
2022-08-26T13:25:47.062Z,9.60
2022-08-26T13:26:50.586Z,9.77
2022-08-26T13:27:52.212Z,9.73
2022-08-26T13:29:01.829Z,9.18
2022-08-26T13:30:04.395Z,9.13
2022-08-26T13:31:07.313Z,9.25
2022-08-26T13:32:09.199Z,10.18
2022-08-26T13:33:12.561Z,9.98
2022-08-26T13:34:20.015Z,10.48
2022-08-26T13:35:21.629Z,9.30
2022-08-26T13:36:24.251Z,8.43
2022-08-26T13:37:34.720Z,8.40
2022-08-26T13:38:39.263Z,8.10
2022-08-26T13:39:41.939Z,8.63
2022-08-26T13:40:44.698Z,9.05
2022-08-26T13:41:46.560Z,8.30
2022-08-26T13:42:49.525Z,7.88
2022-08-26T13:43:52.572Z,6.88
2022-08-26T13:44:57.946Z,8.02
2022-08-26T13:46:01.418Z,6.78
2022-08-26T13:47:04.065Z,7.53
2022-08-26T13:48:08.147Z,7.13
2022-08-26T13:49:10.086Z,6.93
2022-08-26T13:50:12.837Z,6.18
2022-08-26T13:51:16.445Z,6.63
2022-08-26T13:52:18.056Z,6.53
2022-08-26T13:53:33.500Z,6.00
2022-08-26T13:54:36.701Z,5.72
2022-08-26T13:55:39.294Z,5.22
2022-08-26T13:56:41.899Z,5.75
2022-08-26T13:57:43.637Z,6.38
2022-08-26T13:58:46.435Z,5.30
2022-08-26T13:59:48.865Z,5.13
2022-08-26T14:00:51.497Z,5.88
2022-08-26T14:01:53.124Z,6.05
2022-08-26T14:02:56.077Z,5.53
2022-08-26T14:03:57.932Z,5.20
2022-08-26T14:05:00.578Z,6.35
2022-08-26T14:06:02.515Z,5.97
2022-08-26T14:07:05.239Z,5.72
2022-08-26T14:08:08.766Z,5.95
2022-08-26T14:09:11.541Z,5.60
2022-08-26T14:10:15.640Z,6.00
2022-08-26T14:11:17.602Z,5.28
2022-08-26T14:12:20.394Z,4.72
2022-08-26T14:13:23.015Z,5.10